Time;durP1;ratioP1;P1;durP2;ratioP2;P2;SDS_P1;SDS_P2;PMS_P1;PMS_P2;Temp;Humidity;BMP_temperature;BMP_pressure;BME280_temperature;BME280_humidity;BME280_pressure;Samples;Min_cycle;Max_cycle;Signal;HPM_P1;HPM_P2
2023/12/16 00:00:05;;;;;;;2.75;0.63;;;;;;;;;;5015379;28;20207;-76
2023/12/16 00:02:36;;;;;;;2.35;0.68;;;;;;;;;;5015786;28;20213;-78
2023/12/16 00:05:14;;;;;;;2.60;0.70;;;;;;;;;;5015402;28;20195;-76
2023/12/16 00:07:44;;;;;;;1.98;0.70;;;;;;;;;;5015505;28;20198;-76
2023/12/16 00:10:14;;;;;;;1.85;0.68;;;;;;;;;;5015210;28;20244;-76
2023/12/16 00:12:44;;;;;;;1.80;0.55;;;;;;;;;;5015278;28;20210;-77
2023/12/16 00:15:16;;;;;;;2.00;0.60;;;;;;;;;;5015035;28;20245;-76
2023/12/16 00:17:48;;;;;;;3.10;0.60;;;;;;;;;;5015328;28;20198;-76
2023/12/16 00:20:18;;;;;;;1.10;0.60;;;;;;;;;;5015164;28;20201;-76
2023/12/16 00:22:48;;;;;;;1.17;0.50;;;;;;;;;;5011355;28;20286;-76
2023/12/16 00:25:18;;;;;;;1.70;0.50;;;;;;;;;;5015131;28;20213;-74
2023/12/16 00:27:48;;;;;;;1.52;0.50;;;;;;;;;;5014680;28;20321;-76
2023/12/16 00:30:19;;;;;;;2.38;0.68;;;;;;;;;;5015451;28;20760;-77
2023/12/16 00:32:51;;;;;;;2.20;0.60;;;;;;;;;;5014806;28;20198;-75
2023/12/16 00:35:21;;;;;;;0.80;0.47;;;;;;;;;;5014944;28;20554;-74
2023/12/16 00:37:51;;;;;;;0.50;0.50;;;;;;;;;;5003138;28;20215;-74
2023/12/16 00:40:21;;;;;;;1.77;0.50;;;;;;;;;;4995401;28;20207;-74
2023/12/16 00:42:51;;;;;;;3.83;0.50;;;;;;;;;;4995088;28;20291;-74
2023/12/16 00:45:21;;;;;;;1.95;0.50;;;;;;;;;;4995006;28;20223;-73
2023/12/16 00:47:53;;;;;;;0.95;0.40;;;;;;;;;;4995340;28;20200;-77
2023/12/16 00:50:24;;;;;;;0.57;0.40;;;;;;;;;;4995021;28;20278;-75
2023/12/16 00:52:54;;;;;;;1.88;0.50;;;;;;;;;;4995679;28;20274;-74
2023/12/16 00:55:24;;;;;;;0.75;0.45;;;;;;;;;;4995237;28;20203;-75
2023/12/16 00:57:54;;;;;;;0.88;0.50;;;;;;;;;;4994644;28;20226;-76
2023/12/16 01:00:24;;;;;;;2.67;0.70;;;;;;;;;;4994721;28;20214;-76
2023/12/16 01:02:58;;;;;;;1.90;0.50;;;;;;;;;;4994974;28;20207;-76
2023/12/16 01:05:28;;;;;;;0.85;0.30;;;;;;;;;;4994807;28;20236;-76
2023/12/16 01:07:58;;;;;;;1.83;0.40;;;;;;;;;;4994920;28;20663;-75
2023/12/16 01:10:29;;;;;;;0.82;0.52;;;;;;;;;;4994759;28;20267;-76
2023/12/16 01:12:59;;;;;;;1.67;0.40;;;;;;;;;;4994391;28;20195;-74
2023/12/16 01:15:29;;;;;;;1.13;0.40;;;;;;;;;;4994638;28;20209;-76
2023/12/16 01:18:01;;;;;;;1.55;0.45;;;;;;;;;;4994492;28;20294;-75
2023/12/16 01:20:31;;;;;;;1.63;0.30;;;;;;;;;;4994438;28;20739;-78
2023/12/16 01:23:01;;;;;;;1.02;0.32;;;;;;;;;;4994678;28;20203;-76
2023/12/16 01:25:31;;;;;;;1.88;0.40;;;;;;;;;;4994143;28;20570;-76
2023/12/16 01:28:01;;;;;;;0.68;0.30;;;;;;;;;;4993687;28;20600;-76
2023/12/16 01:30:31;;;;;;;2.13;0.50;;;;;;;;;;4994156;28;20234;-79
2023/12/16 01:33:03;;;;;;;0.98;0.30;;;;;;;;;;4994411;28;20203;-76
2023/12/16 01:35:33;;;;;;;1.15;0.30;;;;;;;;;;4994359;28;20199;-76
2023/12/16 01:38:03;;;;;;;1.15;0.40;;;;;;;;;;4994160;28;20206;-76
2023/12/16 01:40:33;;;;;;;1.65;0.50;;;;;;;;;;4994260;28;20239;-76
2023/12/16 01:43:07;;;;;;;2.17;0.40;;;;;;;;;;4994393;28;20203;-76
2023/12/16 01:45:37;;;;;;;1.58;0.47;;;;;;;;;;4993999;28;20229;-78
2023/12/16 01:48:07;;;;;;;0.52;0.20;;;;;;;;;;4994015;28;20261;-81
2023/12/16 01:50:37;;;;;;;3.15;0.40;;;;;;;;;;4993990;28;20223;-74
2023/12/16 01:53:08;;;;;;;1.45;0.30;;;;;;;;;;4993969;28;20203;-76
2023/12/16 01:55:38;;;;;;;0.73;0.60;;;;;;;;;;4993783;28;20226;-76
2023/12/16 01:58:08;;;;;;;3.50;0.55;;;;;;;;;;4993820;28;20254;-75
2023/12/16 02:00:38;;;;;;;1.77;0.50;;;;;;;;;;4993743;28;20582;-76
2023/12/16 02:03:10;;;;;;;0.65;0.30;;;;;;;;;;4993776;28;20187;-74
2023/12/16 02:05:40;;;;;;;1.02;0.50;;;;;;;;;;4993920;28;20199;-75
2023/12/16 02:08:10;;;;;;;0.98;0.35;;;;;;;;;;4994044;28;20243;-81
2023/12/16 02:10:40;;;;;;;3.13;0.65;;;;;;;;;;4993562;28;20685;-75
2023/12/16 02:13:10;;;;;;;1.48;0.43;;;;;;;;;;4993705;28;20642;-75
2023/12/16 02:15:40;;;;;;;0.63;0.30;;;;;;;;;;4993954;28;20293;-75
2023/12/16 02:18:12;;;;;;;0.75;0.35;;;;;;;;;;4994256;28;20670;-74
2023/12/16 02:20:42;;;;;;;1.75;0.45;;;;;;;;;;4993708;28;20190;-77
2023/12/16 02:23:17;;;;;;;1.85;0.40;;;;;;;;;;4993563;28;20290;-76
2023/12/16 02:25:47;;;;;;;0.65;0.32;;;;;;;;;;4993480;28;20594;-75
2023/12/16 02:28:17;;;;;;;0.63;0.22;;;;;;;;;;4993623;28;20238;-74
2023/12/16 02:30:47;;;;;;;0.63;0.30;;;;;;;;;;4993438;28;20231;-77
2023/12/16 02:33:17;;;;;;;0.77;0.32;;;;;;;;;;4993472;28;20210;-74
2023/12/16 02:35:47;;;;;;;2.95;0.47;;;;;;;;;;4993643;28;20203;-75
2023/12/16 02:38:19;;;;;;;1.23;0.38;;;;;;;;;;4997186;28;20203;-76
2023/12/16 02:40:50;;;;;;;1.70;0.50;;;;;;;;;;5016846;28;20721;-76
2023/12/16 02:43:21;;;;;;;0.93;0.30;;;;;;;;;;5016828;28;20252;-76
2023/12/16 02:45:51;;;;;;;1.95;0.30;;;;;;;;;;5016896;28;20262;-76
2023/12/16 02:48:20;;;;;;;0.65;0.30;;;;;;;;;;5016840;28;20298;-74
2023/12/16 02:50:50;;;;;;;1.83;0.40;;;;;;;;;;5016840;28;20234;-76
2023/12/16 02:53:22;;;;;;;0.75;0.40;;;;;;;;;;5016847;28;20202;-77
2023/12/16 02:55:52;;;;;;;0.50;0.30;;;;;;;;;;5016835;28;20201;-76
2023/12/16 02:58:22;;;;;;;1.60;0.47;;;;;;;;;;5016784;28;20206;-75
2023/12/16 03:00:52;;;;;;;0.80;0.20;;;;;;;;;;5016664;28;20644;-76
2023/12/16 03:03:22;;;;;;;0.93;0.28;;;;;;;;;;5016730;28;20198;-77
2023/12/16 03:05:52;;;;;;;1.30;0.60;;;;;;;;;;5016798;28;20213;-77
2023/12/16 03:08:24;;;;;;;2.15;0.70;;;;;;;;;;5016234;28;20285;-75
2023/12/16 03:10:54;;;;;;;2.88;0.65;;;;;;;;;;5016384;28;20305;-76
2023/12/16 03:13:24;;;;;;;1.75;0.60;;;;;;;;;;5015901;28;20632;-76
2023/12/16 03:15:54;;;;;;;2.00;0.70;;;;;;;;;;5016397;28;20208;-78
2023/12/16 03:18:24;;;;;;;2.28;0.60;;;;;;;;;;5016304;28;20202;-76
2023/12/16 03:20:54;;;;;;;1.48;0.40;;;;;;;;;;5016226;28;20652;-78
2023/12/16 03:23:26;;;;;;;0.60;0.40;;;;;;;;;;5016251;28;20265;-78
2023/12/16 03:25:57;;;;;;;1.95;0.50;;;;;;;;;;5016239;28;20236;-77
2023/12/16 03:28:27;;;;;;;0.93;0.40;;;;;;;;;;5015991;28;20234;-77
2023/12/16 03:30:57;;;;;;;1.08;0.45;;;;;;;;;;5015971;28;20240;-78
2023/12/16 03:33:27;;;;;;;1.02;0.40;;;;;;;;;;5016027;28;20693;-78
2023/12/16 03:35:57;;;;;;;1.65;0.30;;;;;;;;;;5016039;28;20264;-77
2023/12/16 03:38:28;;;;;;;0.50;0.30;;;;;;;;;;5016229;28;20210;-79
2023/12/16 03:40:58;;;;;;;2.63;0.30;;;;;;;;;;5014492;28;20186;-80
2023/12/16 03:43:28;;;;;;;1.27;0.50;;;;;;;;;;5012993;28;20209;-79
2023/12/16 03:45:58;;;;;;;1.00;0.40;;;;;;;;;;4996220;28;20209;-76
2023/12/16 03:48:28;;;;;;;1.40;0.35;;;;;;;;;;4996441;28;20209;-76
2023/12/16 03:50:58;;;;;;;0.55;0.35;;;;;;;;;;4995323;28;20313;-76
2023/12/16 03:53:30;;;;;;;16.85;1.95;;;;;;;;;;4995928;28;20195;-76
2023/12/16 03:56:00;;;;;;;3.28;0.50;;;;;;;;;;4996078;28;20191;-78
2023/12/16 03:58:30;;;;;;;1.63;0.40;;;;;;;;;;4995907;28;20199;-76
2023/12/16 04:01:00;;;;;;;4.28;1.05;;;;;;;;;;4999300;28;20206;-74
2023/12/16 04:03:31;;;;;;;0.95;0.40;;;;;;;;;;5014961;28;20194;-77
2023/12/16 04:06:01;;;;;;;3.63;0.40;;;;;;;;;;5006024;28;20238;-77
2023/12/16 04:08:32;;;;;;;2.28;0.43;;;;;;;;;;5000098;28;20205;-77
2023/12/16 04:11:02;;;;;;;1.33;0.32;;;;;;;;;;4995396;28;20225;-76
2023/12/16 04:13:34;;;;;;;1.58;0.35;;;;;;;;;;5001216;28;20286;-77
2023/12/16 04:16:04;;;;;;;4.18;1.40;;;;;;;;;;5015233;28;20190;-78
2023/12/16 04:18:34;;;;;;;2.60;0.70;;;;;;;;;;5000574;28;20352;-77
2023/12/16 04:21:04;;;;;;;2.72;0.60;;;;;;;;;;4999222;28;20202;-77
2023/12/16 04:23:36;;;;;;;2.92;1.30;;;;;;;;;;5001927;28;20195;-77
2023/12/16 04:26:06;;;;;;;6.15;1.70;;;;;;;;;;4995559;28;20619;-74
2023/12/16 04:28:36;;;;;;;5.18;1.45;;;;;;;;;;4996014;28;20242;-76
2023/12/16 04:31:06;;;;;;;2.47;1.00;;;;;;;;;;5005283;28;20230;-75
2023/12/16 04:33:36;;;;;;;3.70;1.50;;;;;;;;;;5007159;28;20198;-76
2023/12/16 04:36:06;;;;;;;3.17;1.80;;;;;;;;;;5014641;28;20393;-74
2023/12/16 04:38:39;;;;;;;1.83;1.20;;;;;;;;;;5009868;28;20209;-75
2023/12/16 04:41:08;;;;;;;2.17;1.27;;;;;;;;;;5004987;28;20265;-74
2023/12/16 04:43:38;;;;;;;3.95;1.48;;;;;;;;;;4996084;28;20202;-76
2023/12/16 04:46:09;;;;;;;4.30;1.50;;;;;;;;;;5004269;28;20198;-75
2023/12/16 04:48:39;;;;;;;2.45;1.30;;;;;;;;;;4995072;28;20253;-76
2023/12/16 04:51:09;;;;;;;3.35;1.42;;;;;;;;;;4994941;28;20242;-76
2023/12/16 04:53:41;;;;;;;2.92;1.42;;;;;;;;;;4996698;28;20191;-77
2023/12/16 04:56:11;;;;;;;1.63;1.05;;;;;;;;;;5014487;28;20278;-76
2023/12/16 04:58:41;;;;;;;5.78;1.40;;;;;;;;;;4995401;28;20282;-75
2023/12/16 05:01:11;;;;;;;2.90;1.35;;;;;;;;;;4996962;28;20230;-77
2023/12/16 05:03:43;;;;;;;3.80;1.25;;;;;;;;;;4994279;28;20230;-78
2023/12/16 05:06:13;;;;;;;3.78;1.10;;;;;;;;;;5010702;28;20187;-75
2023/12/16 05:08:45;;;;;;;4.05;0.98;;;;;;;;;;4996688;28;20675;-75
2023/12/16 05:11:19;;;;;;;1.63;0.80;;;;;;;;;;4994750;28;20223;-77
2023/12/16 05:13:49;;;;;;;4.18;1.10;;;;;;;;;;5006892;28;20597;-77
2023/12/16 05:16:21;;;;;;;1.83;0.80;;;;;;;;;;4994484;28;20203;-77
2023/12/16 05:18:51;;;;;;;2.58;0.90;;;;;;;;;;4994386;28;20192;-77
2023/12/16 05:21:21;;;;;;;6.75;4.57;;;;;;;;;;4994433;28;20214;-78
2023/12/16 05:23:53;;;;;;;4.13;1.20;;;;;;;;;;4994544;28;20742;-76
2023/12/16 05:26:23;;;;;;;4.40;1.10;;;;;;;;;;5013914;28;20643;-77
2023/12/16 05:28:53;;;;;;;3.10;1.00;;;;;;;;;;5001635;28;20195;-76
2023/12/16 05:31:23;;;;;;;2.20;1.00;;;;;;;;;;5008511;28;20234;-77
2023/12/16 05:33:53;;;;;;;2.85;1.30;;;;;;;;;;5005167;28;20209;-76
2023/12/16 05:36:23;;;;;;;1.75;1.05;;;;;;;;;;5013876;28;20206;-77
2023/12/16 05:38:55;;;;;;;2.40;1.15;;;;;;;;;;5002425;28;20207;-76
2023/12/16 05:41:25;;;;;;;2.95;1.08;;;;;;;;;;4994175;28;20199;-76
2023/12/16 05:43:55;;;;;;;1.92;1.10;;;;;;;;;;4994006;28;20224;-77
2023/12/16 05:46:25;;;;;;;2.13;1.10;;;;;;;;;;5008423;28;20248;-77
2023/12/16 05:48:55;;;;;;;2.95;0.98;;;;;;;;;;5014688;28;20202;-76
2023/12/16 05:51:25;;;;;;;1.95;0.90;;;;;;;;;;5013880;28;20747;-77
2023/12/16 05:53:57;;;;;;;2.92;1.05;;;;;;;;;;5013806;28;20273;-78
2023/12/16 05:56:27;;;;;;;2.85;0.90;;;;;;;;;;5013784;28;20201;-78
2023/12/16 05:58:57;;;;;;;1.35;0.80;;;;;;;;;;5012725;28;20719;-77
2023/12/16 06:01:27;;;;;;;1.05;0.80;;;;;;;;;;5013699;28;20282;-77
2023/12/16 06:03:57;;;;;;;1.45;0.90;;;;;;;;;;5013183;28;20234;-77
2023/12/16 06:06:26;;;;;;;2.47;0.98;;;;;;;;;;5014269;28;20669;-77
2023/12/16 06:08:58;;;;;;;3.22;0.82;;;;;;;;;;4995519;28;20245;-77
2023/12/16 06:11:28;;;;;;;2.05;0.90;;;;;;;;;;5006471;28;20215;-77
2023/12/16 06:13:57;;;;;;;2.35;0.90;;;;;;;;;;5003018;28;20199;-76
2023/12/16 06:16:27;;;;;;;2.60;1.00;;;;;;;;;;5002229;28;20199;-76
2023/12/16 06:18:57;;;;;;;2.70;0.93;;;;;;;;;;5000079;28;20214;-77
2023/12/16 06:21:27;;;;;;;2.85;1.08;;;;;;;;;;5017466;28;20195;-76
2023/12/16 06:24:00;;;;;;;4.10;1.75;;;;;;;;;;5006356;28;20213;-77
2023/12/16 06:26:30;;;;;;;5.80;2.10;;;;;;;;;;4997533;28;20191;-77
2023/12/16 06:29:00;;;;;;;3.47;1.90;;;;;;;;;;4997860;28;20210;-77
2023/12/16 06:31:29;;;;;;;6.18;2.10;;;;;;;;;;5002010;28;20230;-77
2023/12/16 06:33:59;;;;;;;6.95;2.30;;;;;;;;;;4997510;28;20210;-76
2023/12/16 06:36:29;;;;;;;6.32;2.20;;;;;;;;;;5001889;28;20194;-77
2023/12/16 06:39:01;;;;;;;5.63;2.10;;;;;;;;;;4997250;28;20719;-77
2023/12/16 06:41:31;;;;;;;8.90;2.10;;;;;;;;;;5001841;28;20195;-78
2023/12/16 06:44:01;;;;;;;5.00;1.83;;;;;;;;;;4994997;28;20229;-77
2023/12/16 06:46:31;;;;;;;4.50;2.03;;;;;;;;;;4999662;28;20202;-77
2023/12/16 06:49:01;;;;;;;8.02;2.58;;;;;;;;;;5014688;28;20205;-77
2023/12/16 06:51:31;;;;;;;3.08;1.60;;;;;;;;;;5014565;28;20634;-77
2023/12/16 06:54:04;;;;;;;6.50;1.80;;;;;;;;;;5005836;28;20207;-79
2023/12/16 06:56:34;;;;;;;4.25;1.70;;;;;;;;;;5007944;28;20223;-76
2023/12/16 06:59:04;;;;;;;3.35;1.52;;;;;;;;;;5015911;28;20221;-77
2023/12/16 07:01:34;;;;;;;3.38;1.38;;;;;;;;;;5014312;28;20198;-76
2023/12/16 07:04:04;;;;;;;4.28;1.30;;;;;;;;;;5005410;28;20213;-76
2023/12/16 07:06:34;;;;;;;3.30;1.30;;;;;;;;;;5016828;28;20195;-76
2023/12/16 07:09:06;;;;;;;1.73;0.95;;;;;;;;;;5005737;28;20200;-75
2023/12/16 07:11:36;;;;;;;2.05;1.10;;;;;;;;;;5005551;28;20219;-79
2023/12/16 07:14:06;;;;;;;2.38;1.00;;;;;;;;;;5015431;28;20577;-77
2023/12/16 07:16:36;;;;;;;4.25;1.17;;;;;;;;;;5014193;28;20552;-79
2023/12/16 07:19:06;;;;;;;2.60;1.10;;;;;;;;;;5015819;28;20199;-78
2023/12/16 07:21:36;;;;;;;5.03;1.50;;;;;;;;;;5016518;28;20206;-78
2023/12/16 07:24:08;;;;;;;4.43;1.33;;;;;;;;;;5006371;28;20235;-78
2023/12/16 07:26:38;;;;;;;2.63;1.30;;;;;;;;;;5014067;28;20694;-77
2023/12/16 07:29:08;;;;;;;4.25;2.08;;;;;;;;;;5010877;28;20669;-77
2023/12/16 07:31:38;;;;;;;5.10;2.20;;;;;;;;;;5015570;28;20232;-77
2023/12/16 07:34:08;;;;;;;5.00;2.45;;;;;;;;;;5015175;28;20202;-78
2023/12/16 07:36:38;;;;;;;6.82;2.60;;;;;;;;;;5007909;28;20200;-78
2023/12/16 07:39:10;;;;;;;5.85;2.60;;;;;;;;;;5012972;28;20294;-78
2023/12/16 07:41:40;;;;;;;5.10;2.60;;;;;;;;;;5006751;28;20565;-78
2023/12/16 07:44:11;;;;;;;7.68;2.53;;;;;;;;;;5003179;28;20613;-78
2023/12/16 07:46:42;;;;;;;4.88;2.47;;;;;;;;;;5009251;28;20226;-78
2023/12/16 07:49:12;;;;;;;5.35;2.60;;;;;;;;;;5008130;28;20563;-79
2023/12/16 07:51:42;;;;;;;5.53;2.15;;;;;;;;;;5006297;28;20226;-78
2023/12/16 07:54:14;;;;;;;5.28;2.38;;;;;;;;;;5007372;28;20202;-78
2023/12/16 07:56:44;;;;;;;6.35;2.33;;;;;;;;;;5012799;28;20202;-78
2023/12/16 07:59:14;;;;;;;5.32;2.60;;;;;;;;;;5002398;28;20207;-76
2023/12/16 08:01:44;;;;;;;6.03;2.22;;;;;;;;;;5002413;28;20195;-77
2023/12/16 08:04:14;;;;;;;4.50;2.63;;;;;;;;;;4999746;28;20574;-77
2023/12/16 08:06:44;;;;;;;4.18;2.53;;;;;;;;;;5012153;28;20713;-77
2023/12/16 08:09:16;;;;;;;5.45;2.58;;;;;;;;;;5007985;28;20210;-78
2023/12/16 08:11:46;;;;;;;6.47;2.58;;;;;;;;;;5007803;28;20221;-77
2023/12/16 08:14:16;;;;;;;5.63;2.60;;;;;;;;;;5007770;28;20199;-76
2023/12/16 08:16:46;;;;;;;7.32;2.70;;;;;;;;;;5007743;28;20199;-76
2023/12/16 08:19:16;;;;;;;3.10;2.53;;;;;;;;;;5014256;28;20686;-76
2023/12/16 08:21:46;;;;;;;6.97;2.65;;;;;;;;;;5003254;28;20291;-77
2023/12/16 08:24:18;;;;;;;4.70;2.60;;;;;;;;;;5000754;28;20214;-76
2023/12/16 08:26:50;;;;;;;4.85;2.65;;;;;;;;;;5008591;28;20227;-77
2023/12/16 08:29:20;;;;;;;4.35;2.50;;;;;;;;;;5009912;28;20199;-75
2023/12/16 08:31:50;;;;;;;4.47;1.90;;;;;;;;;;5000048;28;20278;-75
2023/12/16 08:34:22;;;;;;;6.22;1.90;;;;;;;;;;5009627;28;20199;-75
2023/12/16 08:36:52;;;;;;;3.72;2.47;;;;;;;;;;5001113;28;20223;-76
2023/12/16 08:39:26;;;;;;;5.70;2.60;;;;;;;;;;5007809;28;20203;-76
2023/12/16 08:41:56;;;;;;;8.05;3.47;;;;;;;;;;4997158;28;20199;-76
2023/12/16 08:44:26;;;;;;;7.13;3.30;;;;;;;;;;4998475;28;20278;-77
2023/12/16 08:46:56;;;;;;;6.95;3.00;;;;;;;;;;5006076;28;20230;-77
2023/12/16 08:49:28;;;;;;;10.73;2.80;;;;;;;;;;5001876;28;20203;-77
2023/12/16 08:52:01;;;;;;;8.35;2.53;;;;;;;;;;5009333;28;20706;-77
2023/12/16 08:54:33;;;;;;;10.20;2.53;;;;;;;;;;5001679;28;20196;-79
2023/12/16 08:57:03;;;;;;;9.65;2.60;;;;;;;;;;5008224;28;20201;-77
2023/12/16 08:59:32;;;;;;;11.27;2.80;;;;;;;;;;5003500;28;20200;-78
2023/12/16 09:02:02;;;;;;;13.60;2.50;;;;;;;;;;5008383;28;20206;-77
2023/12/16 09:04:32;;;;;;;9.52;2.03;;;;;;;;;;5003609;28;20210;-76
2023/12/16 09:07:02;;;;;;;11.93;2.75;;;;;;;;;;5013139;28;20210;-76
2023/12/16 09:09:34;;;;;;;10.57;2.50;;;;;;;;;;5006423;28;20294;-78
2023/12/16 09:12:04;;;;;;;12.25;2.95;;;;;;;;;;4996922;28;20222;-78
2023/12/16 09:14:34;;;;;;;12.15;2.90;;;;;;;;;;5010585;28;20199;-78
2023/12/16 09:17:04;;;;;;;9.88;2.28;;;;;;;;;;5006893;28;20213;-77
2023/12/16 09:19:34;;;;;;;9.35;2.30;;;;;;;;;;5010582;28;20213;-78
2023/12/16 09:22:04;;;;;;;12.27;2.42;;;;;;;;;;5007380;28;20203;-77
2023/12/16 09:24:36;;;;;;;11.93;2.50;;;;;;;;;;5005225;28;20199;-76
2023/12/16 09:27:06;;;;;;;11.02;2.10;;;;;;;;;;5009548;28;20226;-76
2023/12/16 09:29:36;;;;;;;10.50;2.22;;;;;;;;;;5003078;28;20206;-77
2023/12/16 09:32:07;;;;;;;11.70;1.90;;;;;;;;;;5008616;28;20237;-75
2023/12/16 09:34:37;;;;;;;9.48;2.80;;;;;;;;;;5014057;28;20202;-77
2023/12/16 09:37:08;;;;;;;12.75;2.65;;;;;;;;;;5005955;28;20721;-78
2023/12/16 09:39:40;;;;;;;9.25;2.13;;;;;;;;;;5004599;28;20230;-77
2023/12/16 09:42:10;;;;;;;6.63;1.85;;;;;;;;;;5002561;28;20199;-76
2023/12/16 09:44:40;;;;;;;9.40;2.40;;;;;;;;;;5006523;28;20238;-77
2023/12/16 09:47:12;;;;;;;10.02;2.40;;;;;;;;;;5002401;28;20198;-77
2023/12/16 09:49:43;;;;;;;9.10;2.00;;;;;;;;;;5008965;28;20203;-77
2023/12/16 09:52:13;;;;;;;11.48;2.25;;;;;;;;;;5003757;28;20222;-77
2023/12/16 09:54:45;;;;;;;11.05;2.80;;;;;;;;;;5006964;28;20670;-77
2023/12/16 09:57:15;;;;;;;11.05;2.17;;;;;;;;;;5008229;28;20214;-76
2023/12/16 09:59:45;;;;;;;12.07;2.40;;;;;;;;;;5006298;28;20210;-77
2023/12/16 10:02:18;;;;;;;11.93;2.25;;;;;;;;;;5012096;28;20209;-77
2023/12/16 10:04:48;;;;;;;10.75;2.25;;;;;;;;;;5007650;28;20196;-77
2023/12/16 10:07:18;;;;;;;10.07;2.60;;;;;;;;;;5007396;28;20203;-77
2023/12/16 10:09:50;;;;;;;10.48;2.67;;;;;;;;;;5007427;28;20200;-78
2023/12/16 10:12:21;;;;;;;10.48;2.47;;;;;;;;;;4996741;28;20576;-77
2023/12/16 10:14:52;;;;;;;10.85;2.55;;;;;;;;;;5010406;28;20230;-77
2023/12/16 10:17:22;;;;;;;9.52;2.20;;;;;;;;;;5008010;28;20325;-77
2023/12/16 10:19:52;;;;;;;10.93;2.13;;;;;;;;;;5013347;28;20574;-78
2023/12/16 10:22:22;;;;;;;10.82;2.40;;;;;;;;;;5005978;28;20207;-77
2023/12/16 10:24:54;;;;;;;10.63;2.30;;;;;;;;;;5011595;28;20222;-76
2023/12/16 10:27:25;;;;;;;12.30;2.25;;;;;;;;;;5008724;28;20594;-76
2023/12/16 10:29:55;;;;;;;13.18;2.15;;;;;;;;;;5003201;28;20203;-77
2023/12/16 10:32:25;;;;;;;11.63;2.10;;;;;;;;;;5006326;28;20321;-77
2023/12/16 10:34:55;;;;;;;13.80;2.20;;;;;;;;;;5008172;28;20202;-76
2023/12/16 10:37:25;;;;;;;7.75;1.83;;;;;;;;;;4998630;28;20210;-77
2023/12/16 10:39:57;;;;;;;7.85;1.75;;;;;;;;;;5006763;28;20209;-79
2023/12/16 10:42:27;;;;;;;10.93;1.83;;;;;;;;;;5008271;28;20213;-76
2023/12/16 10:44:57;;;;;;;9.38;2.38;;;;;;;;;;5004870;28;20226;-77
2023/12/16 10:47:29;;;;;;;6.15;1.90;;;;;;;;;;5000062;28;20202;-76
2023/12/16 10:50:01;;;;;;;14.70;2.70;;;;;;;;;;5002485;28;20202;-77
2023/12/16 10:52:35;;;;;;;10.75;2.25;;;;;;;;;;4995969;28;20220;-77
2023/12/16 10:55:09;;;;;;;8.13;2.00;;;;;;;;;;5006567;28;20207;-76
2023/12/16 10:57:42;;;;;;;11.43;2.55;;;;;;;;;;4999143;28;20239;-77
2023/12/16 11:00:15;;;;;;;9.77;1.85;;;;;;;;;;5000746;28;20204;-75
2023/12/16 11:02:50;;;;;;;10.05;2.13;;;;;;;;;;5006227;28;20198;-76
2023/12/16 11:05:23;;;;;;;9.85;2.08;;;;;;;;;;5001896;28;20203;-76
2023/12/16 11:07:53;;;;;;;11.35;2.00;;;;;;;;;;5006053;28;20210;-79
2023/12/16 11:10:25;;;;;;;10.63;2.13;;;;;;;;;;5001648;28;20199;-79
2023/12/16 11:12:56;;;;;;;8.63;1.45;;;;;;;;;;5002540;28;20306;-77
2023/12/16 11:15:26;;;;;;;10.63;2.10;;;;;;;;;;5008505;28;20206;-79
2023/12/16 11:17:58;;;;;;;9.75;1.80;;;;;;;;;;5010566;28;20286;-78
2023/12/16 11:20:31;;;;;;;10.73;2.10;;;;;;;;;;5014207;28;20195;-76
2023/12/16 11:23:02;;;;;;;8.15;2.08;;;;;;;;;;5008636;28;20205;-77
2023/12/16 11:25:36;;;;;;;10.23;1.83;;;;;;;;;;5015854;28;20646;-77
2023/12/16 11:28:07;;;;;;;10.40;2.13;;;;;;;;;;5014129;28;20235;-77
2023/12/16 11:30:37;;;;;;;11.75;2.28;;;;;;;;;;5014143;28;20195;-77
2023/12/16 11:33:06;;;;;;;8.82;1.90;;;;;;;;;;5002561;28;20570;-77
2023/12/16 11:35:50;;;;;;;7.57;1.67;;;;;;;;;;5008161;28;20199;-78
2023/12/16 11:38:37;;;;;;;7.35;1.85;;;;;;;;;;4997822;28;20200;-76
2023/12/16 11:41:10;;;;;;;7.03;1.60;;;;;;;;;;5015498;28;20199;-77
2023/12/16 11:43:53;;;;;;;5.80;1.60;;;;;;;;;;4997183;28;20237;-75
2023/12/16 11:46:40;;;;;;;8.43;2.00;;;;;;;;;;5005255;28;20227;-77
2023/12/16 11:49:12;;;;;;;13.30;1.95;;;;;;;;;;5015657;28;20195;-77
2023/12/16 11:51:42;;;;;;;6.78;1.63;;;;;;;;;;5014827;28;20350;-77
2023/12/16 11:54:13;;;;;;;5.95;1.83;;;;;;;;;;5015075;28;20210;-75
2023/12/16 11:56:45;;;;;;;6.25;1.50;;;;;;;;;;5015085;28;20187;-76
2023/12/16 11:59:15;;;;;;;9.20;1.90;;;;;;;;;;5007995;28;20194;-74
2023/12/16 12:01:45;;;;;;;7.75;1.60;;;;;;;;;;5015434;28;20207;-77
2023/12/16 12:04:15;;;;;;;9.38;1.70;;;;;;;;;;4999178;28;20196;-76
2023/12/16 12:06:45;;;;;;;7.07;1.63;;;;;;;;;;5010854;28;20202;-74
2023/12/16 12:09:15;;;;;;;7.93;1.60;;;;;;;;;;5009068;28;20198;-75
2023/12/16 12:11:47;;;;;;;9.52;1.88;;;;;;;;;;5003726;28;20200;-77
2023/12/16 12:14:17;;;;;;;10.77;1.90;;;;;;;;;;5006541;28;20188;-76
2023/12/16 12:16:47;;;;;;;8.63;2.15;;;;;;;;;;5007584;28;20225;-76
2023/12/16 12:19:17;;;;;;;8.05;2.33;;;;;;;;;;4995799;28;20200;-76
2023/12/16 12:21:47;;;;;;;5.35;1.40;;;;;;;;;;5004399;28;20195;-75
2023/12/16 12:24:17;;;;;;;7.38;1.70;;;;;;;;;;5013945;28;20673;-76
2023/12/16 12:26:49;;;;;;;10.10;1.83;;;;;;;;;;4995421;28;20231;-74
2023/12/16 12:29:19;;;;;;;10.55;2.05;;;;;;;;;;5009868;28;20597;-75
2023/12/16 12:31:49;;;;;;;5.38;1.60;;;;;;;;;;4996430;28;20196;-76
2023/12/16 12:34:20;;;;;;;8.02;1.80;;;;;;;;;;4996335;28;20214;-74
2023/12/16 12:36:50;;;;;;;6.55;1.67;;;;;;;;;;4995392;28;20191;-77
2023/12/16 12:39:21;;;;;;;6.15;1.80;;;;;;;;;;4999619;28;20209;-79
2023/12/16 12:42:04;;;;;;;8.48;1.50;;;;;;;;;;5012997;28;20250;-77
2023/12/16 12:44:36;;;;;;;4.22;1.60;;;;;;;;;;4995045;28;20229;-78
2023/12/16 12:47:06;;;;;;;6.72;1.60;;;;;;;;;;4995286;28;20308;-77
2023/12/16 12:49:36;;;;;;;7.07;1.60;;;;;;;;;;5004178;28;20211;-77
2023/12/16 12:52:06;;;;;;;6.95;1.58;;;;;;;;;;5006979;28;20198;-77
2023/12/16 12:54:46;;;;;;;6.07;1.60;;;;;;;;;;4996696;28;20199;-77
2023/12/16 12:57:24;;;;;;;7.22;1.45;;;;;;;;;;5003154;28;20191;-75
2023/12/16 12:59:54;;;;;;;14.10;2.10;;;;;;;;;;5014561;28;20187;-77
2023/12/16 13:02:24;;;;;;;7.78;1.70;;;;;;;;;;5014231;28;20211;-78
2023/12/16 13:04:54;;;;;;;10.65;2.15;;;;;;;;;;5014573;28;20299;-78
2023/12/16 13:07:24;;;;;;;8.57;1.77;;;;;;;;;;5014620;28;20213;-77
2023/12/16 13:09:54;;;;;;;9.77;2.35;;;;;;;;;;5014319;28;20573;-76
2023/12/16 13:12:26;;;;;;;8.65;1.40;;;;;;;;;;5013983;28;20205;-78
2023/12/16 13:14:56;;;;;;;6.72;1.60;;;;;;;;;;5006300;28;20206;-78
2023/12/16 13:17:25;;;;;;;6.00;1.70;;;;;;;;;;5005657;28;20258;-76
2023/12/16 13:19:55;;;;;;;8.65;1.55;;;;;;;;;;4994886;28;20199;-78
2023/12/16 13:22:25;;;;;;;7.30;1.63;;;;;;;;;;5009505;28;20203;-75
2023/12/16 13:24:55;;;;;;;6.65;1.40;;;;;;;;;;5014051;28;20209;-76
2023/12/16 13:27:27;;;;;;;10.02;1.70;;;;;;;;;;5013925;28;20234;-76
2023/12/16 13:29:57;;;;;;;8.38;1.73;;;;;;;;;;5014062;28;20191;-76
2023/12/16 13:32:27;;;;;;;7.30;1.50;;;;;;;;;;5014061;28;20207;-75
2023/12/16 13:34:57;;;;;;;6.53;1.52;;;;;;;;;;5000882;28;20199;-77
2023/12/16 13:37:27;;;;;;;6.05;1.40;;;;;;;;;;4998574;28;20192;-76
2023/12/16 13:39:57;;;;;;;5.32;1.50;;;;;;;;;;5012229;28;20199;-76
2023/12/16 13:42:29;;;;;;;6.90;1.50;;;;;;;;;;5006264;28;20198;-76
2023/12/16 13:44:59;;;;;;;5.38;1.20;;;;;;;;;;5009239;28;20218;-75
2023/12/16 13:47:29;;;;;;;5.53;1.50;;;;;;;;;;4997786;28;20203;-76
2023/12/16 13:49:59;;;;;;;9.30;1.70;;;;;;;;;;4994580;28;20651;-77
2023/12/16 13:52:29;;;;;;;6.30;1.50;;;;;;;;;;5012992;28;20673;-78
2023/12/16 13:54:58;;;;;;;6.95;1.80;;;;;;;;;;5011633;28;20206;-77
2023/12/16 13:57:30;;;;;;;7.40;1.83;;;;;;;;;;5012715;28;20199;-78
2023/12/16 14:00:00;;;;;;;8.60;1.70;;;;;;;;;;5009388;28;20192;-77
2023/12/16 14:02:30;;;;;;;6.65;1.60;;;;;;;;;;5007493;28;20201;-77
2023/12/16 14:05:01;;;;;;;6.70;1.45;;;;;;;;;;5013407;28;20199;-80
2023/12/16 14:07:32;;;;;;;9.15;1.60;;;;;;;;;;5013278;28;20659;-77
2023/12/16 14:10:02;;;;;;;8.70;2.10;;;;;;;;;;5001994;28;20629;-77
2023/12/16 14:12:34;;;;;;;7.78;1.73;;;;;;;;;;4994665;28;20211;-78
2023/12/16 14:15:04;;;;;;;4.10;1.40;;;;;;;;;;4993542;28;20195;-78
2023/12/16 14:17:34;;;;;;;10.57;1.70;;;;;;;;;;4996111;28;20187;-78
2023/12/16 14:20:04;;;;;;;7.72;1.33;;;;;;;;;;5012710;28;20199;-75
2023/12/16 14:22:34;;;;;;;6.00;1.67;;;;;;;;;;5009632;28;20257;-76
2023/12/16 14:25:06;;;;;;;11.75;1.65;;;;;;;;;;4993710;28;20226;-78
2023/12/16 14:27:37;;;;;;;5.40;1.42;;;;;;;;;;4998560;28;20692;-75
2023/12/16 14:30:08;;;;;;;6.05;1.40;;;;;;;;;;5001322;28;20547;-76
2023/12/16 14:32:38;;;;;;;6.43;1.40;;;;;;;;;;5006507;28;20287;-76
2023/12/16 14:35:10;;;;;;;7.50;1.40;;;;;;;;;;5014509;28;20209;-76
2023/12/16 14:37:40;;;;;;;4.30;1.10;;;;;;;;;;5004959;28;20219;-77
2023/12/16 14:40:10;;;;;;;8.32;1.90;;;;;;;;;;5009460;28;20217;-76
2023/12/16 14:42:42;;;;;;;9.07;1.48;;;;;;;;;;5014013;28;20211;-77
2023/12/16 14:45:12;;;;;;;5.00;1.20;;;;;;;;;;5004691;28;20313;-76
2023/12/16 14:47:42;;;;;;;4.53;1.58;;;;;;;;;;5001125;28;20214;-77
2023/12/16 14:50:12;;;;;;;8.55;1.50;;;;;;;;;;5001214;28;20231;-78
2023/12/16 14:52:42;;;;;;;8.70;1.40;;;;;;;;;;5007150;28;20226;-77
2023/12/16 14:55:12;;;;;;;7.13;1.42;;;;;;;;;;5013811;28;20206;-78
2023/12/16 14:57:44;;;;;;;6.70;1.35;;;;;;;;;;5014733;28;20677;-77
2023/12/16 15:00:14;;;;;;;4.88;1.50;;;;;;;;;;5015250;28;20551;-78